Antioch, CA (94509)

6:04 PM PST on January 16, 2017 (GMT -0800)
Mountaire Meadows | | Change Station

Elev 128 ft 37.99 °N, 121.80 °W | Updated 10 seconds ago

Clear
Clear
44.1 °F
Feels Like 44 °F
N
0.0
Wind Variable Wind from South
Gusts 0.0 mph

Today
High -- | Low -- °F
--% Chance of Precip.
Yesterday
High -- | Low -- °F
Precip. -- in
Pressure 30.07 in
Visibility 9.0 miles
Clouds Clear
Windchill 44 °F
Dew Point 40 °F
Humidity 85%
Rainfall 0.00 in
Snow Depth Not available.
7:21 AM 5:13 PM
Waning Gibbous, 77% visible
METAR KCCR 170153Z 03005KT 9SM CLR 08/03 A3011 RMK AO2 SLP182 T00830028
Pressure 30.07 in
Visibility 9.0 miles
Clouds Clear
Windchill 44 °F
Dew Point 40 °F
Humidity 85%
Rainfall 0.00 in
Snow Depth Not available.
7:21 AM 5:13 PM
Waning Gibbous, 77% visible
METAR KCCR 170153Z 03005KT 9SM CLR 08/03 A3011 RMK AO2 SLP182 T00830028

Get Your Daily Forecast Email!

Thanks for signing up!

Be on the lookout for a verification email in your inbox.

You'll start receiving the daily forecast at 8 AM.

×

10-Day Weather Forecast

Almanac

Astronomy

Jan. 16, 2017 Rise Set
Actual Time
Civil Twilight
Nautical Twilight
Astronomical Twilight
Moon
Length of Visible Light
Length of Day
Tomorrow will be .
, % of the Moon is Illuminated

Today's Extremes

State Highs State Lows

Community

WunderPhotos

Upload Photos

1,962,540 photos uploaded!

WunderBlog® & News

Nearby

Air Quality

  Air Quality AQ Index Pollutant
Not available.

Snow Depth

Station Depth Elevation

Earthquake Activity

City Distance Mag. Time & Date
Minimum magnitude displayed is 2.5.

Coastal Water Temperatures

Place Temperature

Stations

Nearby Weather Stations

Station Location Temp. Windchill Dew Point Humidity Wind Precip. Elev Updated Type
                   

Watches & Warnings

There are currently no watches in effect.